Time;durP1;ratioP1;P1;durP2;ratioP2;P2;SDS_P1;SDS_P2;PMS_P1;PMS_P2;Temp;Humidity;BMP_temperature;BMP_pressure;BME280_temperature;BME280_humidity;BME280_pressure;Samples;Min_cycle;Max_cycle;Signal;HPM_P1;HPM_P2
2022/10/31 00:01:12;;;;;;;25.00;19.85;;;11.10;99.90;;;;;;4997426;28;20132;-79
2022/10/31 00:03:39;;;;;;;26.42;19.60;;;11.20;99.90;;;;;;4981120;28;20450;-79
2022/10/31 00:06:05;;;;;;;23.75;18.92;;;11.00;99.90;;;;;;4982166;28;20533;-78
2022/10/31 00:08:33;;;;;;;26.08;18.92;;;11.10;99.90;;;;;;5001843;28;20050;-76
2022/10/31 00:10:59;;;;;;;24.02;19.15;;;11.10;99.90;;;;;;4998122;28;20061;-77
2022/10/31 00:13:26;;;;;;;27.20;19.63;;;11.10;99.90;;;;;;4998538;28;20049;-77
2022/10/31 00:15:53;;;;;;;24.77;19.98;;;11.10;99.90;;;;;;4998415;28;20117;-77
2022/10/31 00:18:20;;;;;;;21.98;19.63;;;11.00;99.90;;;;;;4984757;28;20048;-77
2022/10/31 00:20:46;;;;;;;23.38;20.35;;;11.00;99.90;;;;;;4979436;28;20799;-76
2022/10/31 00:23:13;;;;;;;24.65;20.08;;;10.90;99.90;;;;;;4996985;28;20050;-77
2022/10/31 00:25:40;;;;;;;25.13;20.63;;;10.90;99.90;;;;;;4983613;28;20046;-77
2022/10/31 00:28:10;;;;;;;27.02;20.63;;;10.90;99.90;;;;;;4999967;28;20046;-78
2022/10/31 00:30:37;;;;;;;30.17;21.23;;;10.90;99.90;;;;;;4999761;28;20380;-78
2022/10/31 00:33:05;;;;;;;26.80;20.40;;;10.80;99.90;;;;;;5000482;28;20108;-78
2022/10/31 00:35:32;;;;;;;29.52;20.35;;;10.90;99.90;;;;;;4983803;28;20053;-77
2022/10/31 00:37:59;;;;;;;30.17;21.10;;;11.10;99.90;;;;;;5000595;28;20052;-78
2022/10/31 00:40:26;;;;;;;27.20;20.73;;;11.10;99.90;;;;;;5001033;28;20096;-78
2022/10/31 00:42:53;;;;;;;23.98;20.70;;;11.30;99.90;;;;;;5001903;28;20038;-77
2022/10/31 00:45:20;;;;;;;27.80;21.17;;;11.30;99.90;;;;;;5002297;28;20042;-78
2022/10/31 00:47:47;;;;;;;25.98;19.80;;;11.40;99.90;;;;;;5005016;28;20510;-78
2022/10/31 00:50:13;;;;;;;28.85;21.23;;;11.60;99.90;;;;;;5000364;28;20110;-78
2022/10/31 00:52:40;;;;;;;32.65;22.33;;;11.70;99.90;;;;;;5006344;28;20042;-77
2022/10/31 00:55:07;;;;;;;29.30;22.73;;;11.80;99.90;;;;;;5002867;28;20054;-78
2022/10/31 00:57:34;;;;;;;28.10;23.30;;;11.90;99.90;;;;;;5025208;22;20526;-72
2022/10/31 01:00:02;;;;;;;28.60;25.25;;;12.00;99.90;;;;;;4994633;28;20084;-72
2022/10/31 01:02:29;;;;;;;26.88;24.23;;;12.10;99.90;;;;;;5004549;28;20034;-72
2022/10/31 01:04:56;;;;;;;29.48;24.20;;;12.10;99.90;;;;;;5009242;28;20069;-72
2022/10/31 01:07:22;;;;;;;30.90;24.40;;;12.20;99.90;;;;;;4980960;28;20037;-73
2022/10/31 01:09:49;;;;;;;29.95;23.58;;;12.40;99.90;;;;;;4979664;28;20188;-72
2022/10/31 01:12:16;;;;;;;26.83;24.00;;;12.40;99.90;;;;;;4989301;28;20082;-72
2022/10/31 01:14:44;;;;;;;28.52;23.80;;;12.50;99.90;;;;;;4992237;28;20527;-71
2022/10/31 01:17:12;;;;;;;28.92;24.25;;;12.50;99.90;;;;;;5006054;28;20265;-73
2022/10/31 01:19:39;;;;;;;28.00;23.63;;;12.50;99.90;;;;;;5041591;23;20024;-75
2022/10/31 01:22:06;;;;;;;28.58;24.20;;;12.50;99.90;;;;;;5051894;28;20053;-75
2022/10/31 01:24:33;;;;;;;28.00;24.85;;;12.50;99.90;;;;;;5054403;28;20135;-75
2022/10/31 01:27:01;;;;;;;27.77;24.25;;;12.40;99.90;;;;;;5018470;28;20147;-74
2022/10/31 01:29:31;;;;;;;30.00;23.35;;;12.40;99.90;;;;;;5036674;28;20052;-74
2022/10/31 01:31:58;;;;;;;33.25;24.65;;;12.40;99.90;;;;;;5049047;28;20037;-75
2022/10/31 01:34:24;;;;;;;29.45;24.83;;;12.40;99.90;;;;;;5045259;28;20147;-75
2022/10/31 01:36:51;;;;;;;37.95;26.00;;;12.40;99.90;;;;;;5049665;28;20439;-73
2022/10/31 01:39:19;;;;;;;30.45;24.65;;;12.40;99.90;;;;;;5053075;28;20045;-76
2022/10/31 01:41:49;;;;;;;28.08;25.05;;;12.40;99.90;;;;;;5073947;28;20033;-76
2022/10/31 01:44:15;;;;;;;31.75;26.27;;;12.30;99.90;;;;;;5072233;28;20660;-75
2022/10/31 01:46:42;;;;;;;37.10;26.40;;;12.20;99.90;;;;;;5076891;28;20044;-75
2022/10/31 01:49:18;;;;;;;32.45;27.33;;;12.30;99.90;;;;;;5069137;28;20044;-76
2022/10/31 01:51:53;;;;;;;29.77;26.10;;;12.30;99.90;;;;;;5051489;28;20205;-75
2022/10/31 01:54:23;;;;;;;37.88;27.17;;;12.20;99.90;;;;;;5050669;28;20041;-75
2022/10/31 01:56:54;;;;;;;32.45;28.05;;;12.20;99.90;;;;;;5044695;28;20044;-75
2022/10/31 01:59:25;;;;;;;40.58;29.10;;;12.20;99.90;;;;;;5052020;28;20051;-75
2022/10/31 02:01:53;;;;;;;40.85;28.25;;;12.20;99.90;;;;;;5053512;28;20126;-74
2022/10/31 02:04:23;;;;;;;40.47;30.25;;;12.30;99.90;;;;;;5048662;28;20128;-75
2022/10/31 02:07:02;;;;;;;39.25;30.02;;;12.30;99.90;;;;;;5050244;28;20126;-74
2022/10/31 02:09:31;;;;;;;43.45;29.77;;;12.20;99.90;;;;;;5041774;28;20143;-75
2022/10/31 02:12:02;;;;;;;44.72;31.98;;;12.00;99.90;;;;;;5050838;28;20054;-75
2022/10/31 02:14:31;;;;;;;40.15;28.95;;;11.90;99.90;;;;;;5055252;28;20041;-74
2022/10/31 02:16:57;;;;;;;43.72;32.35;;;11.80;99.90;;;;;;5061249;28;20067;-75
2022/10/31 02:19:33;;;;;;;49.90;33.97;;;11.70;99.90;;;;;;5049269;28;20487;-75
2022/10/31 02:22:25;;;;;;;56.40;36.53;;;11.70;99.90;;;;;;5032165;28;20040;-75
2022/10/31 02:25:33;;;;;;;42.03;29.17;;;11.70;99.90;;;;;;5055693;28;20363;-75
2022/10/31 02:28:28;;;;;;;50.17;32.78;;;11.70;99.90;;;;;;5024307;28;20048;-75
2022/10/31 02:31:12;;;;;;;45.97;33.38;;;11.60;99.90;;;;;;5067968;28;20033;-75
2022/10/31 02:33:57;;;;;;;52.42;35.30;;;11.50;99.90;;;;;;5055482;28;21055;-74
2022/10/31 02:36:48;;;;;;;68.28;36.58;;;11.40;99.90;;;;;;5052613;28;20059;-75
2022/10/31 02:39:34;;;;;;;65.03;36.40;;;11.30;99.90;;;;;;5050426;28;21166;-75
2022/10/31 02:42:09;;;;;;;50.80;30.90;;;11.10;99.90;;;;;;5049308;28;20084;-75
2022/10/31 02:44:45;;;;;;;56.40;33.33;;;10.90;99.90;;;;;;5054767;28;20052;-75
2022/10/31 02:47:26;;;;;;;57.65;34.53;;;10.90;99.90;;;;;;5033735;28;20048;-74
2022/10/31 02:50:02;;;;;;;58.35;35.45;;;10.80;99.90;;;;;;5063185;28;20049;-75
2022/10/31 02:52:34;;;;;;;56.60;37.08;;;10.90;99.90;;;;;;5053234;28;20053;-75
2022/10/31 02:55:30;;;;;;;65.35;36.88;;;10.90;99.90;;;;;;5051674;28;20601;-74
2022/10/31 02:58:08;;;;;;;60.95;35.60;;;10.80;99.90;;;;;;5021787;28;20047;-75
2022/10/31 03:00:58;;;;;;;62.58;38.03;;;10.80;99.90;;;;;;5049761;28;20052;-75
2022/10/31 03:03:35;;;;;;;73.32;42.28;;;10.80;99.90;;;;;;5050050;28;20048;-76
2022/10/31 03:06:16;;;;;;;79.13;41.05;;;10.70;99.90;;;;;;5050667;28;20110;-75
2022/10/31 03:08:49;;;;;;;64.28;36.90;;;10.80;99.90;;;;;;5067631;28;20106;-75
2022/10/31 03:11:20;;;;;;;63.05;36.95;;;10.50;99.90;;;;;;5052008;28;20053;-76
2022/10/31 03:13:51;;;;;;;60.28;32.40;;;10.30;99.90;;;;;;5048704;28;20132;-75
2022/10/31 03:16:25;;;;;;;57.00;32.95;;;10.20;99.90;;;;;;5052569;28;20071;-75
2022/10/31 03:19:06;;;;;;;45.75;33.58;;;10.10;99.90;;;;;;5067492;28;20076;-76
2022/10/31 03:21:39;;;;;;;63.58;35.38;;;10.10;99.90;;;;;;5053694;28;20110;-76
2022/10/31 03:24:08;;;;;;;65.45;35.78;;;10.30;99.90;;;;;;5049839;28;20114;-75
2022/10/31 03:26:40;;;;;;;70.30;37.03;;;10.40;99.90;;;;;;5048537;28;20052;-76
2022/10/31 03:29:11;;;;;;;63.90;35.10;;;10.40;99.90;;;;;;5049150;28;20056;-75
2022/10/31 03:32:06;;;;;;;66.80;37.45;;;10.60;99.90;;;;;;5045632;28;20548;-75
2022/10/31 03:34:36;;;;;;;67.47;37.25;;;10.50;99.90;;;;;;5049444;28;20303;-76
2022/10/31 03:37:06;;;;;;;70.57;37.38;;;10.50;99.90;;;;;;5049222;28;20049;-75
2022/10/31 03:39:36;;;;;;;75.55;39.45;;;10.50;99.90;;;;;;5045564;28;20113;-75
2022/10/31 03:42:10;;;;;;;68.90;38.25;;;10.50;99.90;;;;;;5050391;28;20068;-75
2022/10/31 03:44:40;;;;;;;70.03;35.85;;;10.50;99.90;;;;;;5055145;28;20123;-75
2022/10/31 03:47:08;;;;;;;87.75;38.10;;;10.50;99.90;;;;;;5049384;28;20080;-73
2022/10/31 03:49:35;;;;;;;76.55;36.90;;;10.50;99.90;;;;;;5053861;28;20641;-75
2022/10/31 03:52:32;;;;;;;72.15;33.85;;;10.40;99.90;;;;;;5045834;28;20472;-75
2022/10/31 03:55:09;;;;;;;65.88;34.13;;;10.30;99.90;;;;;;5028013;28;20041;-75
2022/10/31 03:57:41;;;;;;;63.55;34.40;;;10.30;99.90;;;;;;5061822;28;20395;-74
2022/10/31 04:00:11;;;;;;;69.68;36.63;;;10.20;99.90;;;;;;5051848;28;20117;-74
2022/10/31 04:02:55;;;;;;;76.53;36.50;;;10.10;99.90;;;;;;5045119;28;20114;-75
2022/10/31 04:05:24;;;;;;;78.45;37.97;;;10.20;99.90;;;;;;5046254;28;20187;-74
2022/10/31 04:07:57;;;;;;;94.40;41.90;;;10.10;99.90;;;;;;5053384;28;20079;-75
2022/10/31 04:10:26;;;;;;;87.80;40.35;;;10.20;99.90;;;;;;5046097;28;20048;-74
2022/10/31 04:13:11;;;;;;;78.93;37.85;;;10.20;99.90;;;;;;5046259;28;20445;-77
2022/10/31 04:15:45;;;;;;;79.27;37.20;;;9.90;99.90;;;;;;5048218;28;20101;-77
2022/10/31 04:18:12;;;;;;;87.38;39.22;;;9.80;99.90;;;;;;5034832;28;20776;-77
2022/10/31 04:20:40;;;;;;;86.00;38.08;;;9.80;99.90;;;;;;5050912;28;20163;-74
2022/10/31 04:23:22;;;;;;;83.55;38.28;;;9.60;99.90;;;;;;5048010;28;20052;-74
2022/10/31 04:25:50;;;;;;;88.93;40.97;;;9.70;99.90;;;;;;5044870;28;20439;-75
2022/10/31 04:28:18;;;;;;;88.53;39.08;;;9.70;99.90;;;;;;5046125;28;20473;-76
2022/10/31 04:30:50;;;;;;;80.50;36.35;;;9.70;99.90;;;;;;5044712;28;20396;-76
2022/10/31 04:33:17;;;;;;;72.93;37.83;;;9.60;99.90;;;;;;5064317;28;20466;-74
2022/10/31 04:35:46;;;;;;;81.40;39.47;;;9.50;99.90;;;;;;5049009;28;20065;-74
2022/10/31 04:38:12;;;;;;;82.15;38.60;;;9.40;99.90;;;;;;5048423;28;20471;-76
2022/10/31 04:40:40;;;;;;;81.80;38.22;;;9.30;99.90;;;;;;5052508;28;20064;-76
2022/10/31 04:43:25;;;;;;;;;;;9.20;99.90;;;;;;5045905;28;20048;-75
2022/10/31 04:45:52;;;;;;;79.35;39.50;;;9.20;99.90;;;;;;5057916;28;20329;-76
2022/10/31 04:48:19;;;;;;;87.45;42.58;;;9.10;99.90;;;;;;5035495;28;20042;-76
2022/10/31 04:50:45;;;;;;;94.38;43.50;;;9.20;99.90;;;;;;5028444;28;20110;-76
2022/10/31 04:53:14;;;;;;;90.45;40.25;;;9.20;99.90;;;;;;5046967;28;20360;-76
2022/10/31 04:56:07;;;;;;;91.55;42.78;;;9.40;99.90;;;;;;5042883;28;20041;-75
2022/10/31 04:58:41;;;;;;;100.25;43.35;;;9.30;99.90;;;;;;5049819;28;20052;-74
2022/10/31 05:01:09;;;;;;;101.10;43.45;;;9.50;99.90;;;;;;5065143;28;20040;-75
2022/10/31 05:03:36;;;;;;;90.30;43.13;;;9.50;99.90;;;;;;5048023;28;20128;-75
2022/10/31 05:06:03;;;;;;;104.70;46.38;;;9.40;99.90;;;;;;5048105;28;20076;-74
2022/10/31 05:08:29;;;;;;;100.45;43.67;;;9.40;99.90;;;;;;5070634;28;20113;-75
2022/10/31 05:11:03;;;;;;;113.88;47.20;;;9.40;99.90;;;;;;5045682;28;20069;-74
2022/10/31 05:13:31;;;;;;;135.40;49.95;;;9.30;99.90;;;;;;5069353;28;20123;-74
2022/10/31 05:16:13;;;;;;;126.53;48.83;;;9.30;99.90;;;;;;5049753;28;20048;-74
2022/10/31 05:18:54;;;;;;;109.13;45.60;;;9.20;99.90;;;;;;5048248;28;20136;-76
2022/10/31 05:21:47;;;;;;;131.00;47.80;;;9.20;99.90;;;;;;5057762;28;20399;-75
2022/10/31 05:24:14;;;;;;;124.00;48.88;;;9.10;99.90;;;;;;5051080;28;20494;-75
2022/10/31 05:26:46;;;;;;;87.95;41.05;;;9.10;99.90;;;;;;5035134;28;20283;-75
2022/10/31 05:29:13;;;;;;;98.53;41.75;;;9.10;99.90;;;;;;5046582;28;20044;-75
2022/10/31 05:31:39;;;;;;;74.22;37.85;;;8.90;99.90;;;;;;5048497;28;20220;-76
2022/10/31 05:34:12;;;;;;;81.60;38.67;;;8.80;99.90;;;;;;5034037;28;20546;-75
2022/10/31 05:37:05;;;;;;;76.60;39.30;;;8.80;99.90;;;;;;5044797;28;20150;-75
2022/10/31 05:39:32;;;;;;;110.55;46.10;;;8.60;99.90;;;;;;5047682;28;20055;-75
2022/10/31 05:42:03;;;;;;;108.38;42.83;;;8.70;99.90;;;;;;5043161;28;20037;-74
2022/10/31 05:44:30;;;;;;;84.10;40.33;;;8.60;99.90;;;;;;5057796;28;20094;-75
2022/10/31 05:47:08;;;;;;;85.50;40.25;;;8.60;99.90;;;;;;5052841;28;20094;-75
2022/10/31 05:49:54;;;;;;;90.78;42.50;;;8.60;99.90;;;;;;5053910;28;20417;-75
2022/10/31 05:53:05;;;;;;;89.30;44.05;;;8.50;99.90;;;;;;5056904;28;20645;-74
2022/10/31 05:55:37;;;;;;;93.15;45.22;;;8.50;99.90;;;;;;5053705;28;20044;-75
2022/10/31 05:58:12;;;;;;;101.57;45.53;;;8.60;99.90;;;;;;5049696;28;20136;-75
2022/10/31 06:00:45;;;;;;;103.20;45.85;;;8.70;99.90;;;;;;5045531;28;20064;-75
2022/10/31 06:03:12;;;;;;;105.47;45.97;;;8.60;99.90;;;;;;5048438;28;20337;-75
2022/10/31 06:05:54;;;;;;;94.60;42.50;;;8.70;99.90;;;;;;5056333;28;20474;-74
2022/10/31 06:08:24;;;;;;;99.93;46.05;;;8.60;99.90;;;;;;5054443;28;20044;-74
2022/10/31 06:10:53;;;;;;;117.72;49.05;;;8.70;99.90;;;;;;5045776;28;20041;-74
2022/10/31 06:13:29;;;;;;;120.78;50.00;;;8.70;99.90;;;;;;5048992;28;20068;-75
2022/10/31 06:16:07;;;;;;;105.28;46.58;;;8.80;99.90;;;;;;5049247;28;20121;-75
2022/10/31 06:18:37;;;;;;;103.70;47.55;;;8.60;99.90;;;;;;5048010;28;20118;-74
2022/10/31 06:21:03;;;;;;;109.22;48.17;;;8.60;99.90;;;;;;5041803;28;20462;-75
2022/10/31 06:23:30;;;;;;;136.60;53.78;;;8.60;99.90;;;;;;5055014;28;20092;-75
2022/10/31 06:26:17;;;;;;;147.02;51.65;;;8.70;99.90;;;;;;5049325;28;20513;-75
2022/10/31 06:28:43;;;;;;;151.35;56.28;;;8.60;99.90;;;;;;5054493;28;20040;-75
2022/10/31 06:31:24;;;;;;;124.55;48.42;;;8.70;99.90;;;;;;5042995;28;20131;-74
2022/10/31 06:33:51;;;;;;;154.55;55.10;;;8.70;99.90;;;;;;5052665;28;20116;-74
2022/10/31 06:36:18;;;;;;;213.60;61.30;;;8.70;99.90;;;;;;5046740;28;20117;-75
2022/10/31 06:38:46;;;;;;;190.93;61.30;;;8.80;99.90;;;;;;5040335;28;21213;-75
2022/10/31 06:41:15;;;;;;;187.20;62.75;;;8.80;99.90;;;;;;5049828;28;20144;-74
2022/10/31 06:43:47;;;;;;;179.65;70.03;;;8.80;99.90;;;;;;5054991;28;20037;-75
2022/10/31 06:46:30;;;;;;;193.05;71.50;;;8.80;99.90;;;;;;5049380;28;20098;-75
2022/10/31 06:49:12;;;;;;;171.80;65.53;;;8.70;99.90;;;;;;5053043;28;20044;-75
2022/10/31 06:51:52;;;;;;;137.85;53.10;;;8.70;99.90;;;;;;5038009;28;20533;-76
2022/10/31 06:54:19;;;;;;;120.38;47.88;;;8.60;99.90;;;;;;5050206;28;20170;-75
2022/10/31 06:56:49;;;;;;;119.38;48.78;;;8.60;99.90;;;;;;5044547;28;20499;-75
2022/10/31 06:59:16;;;;;;;121.85;47.63;;;8.60;99.90;;;;;;5046725;28;20045;-75
2022/10/31 07:02:02;;;;;;;115.00;48.83;;;8.70;99.90;;;;;;5058999;28;20085;-76
2022/10/31 07:04:28;;;;;;;131.65;52.58;;;8.70;99.90;;;;;;5046082;28;20064;-76
2022/10/31 07:06:56;;;;;;;129.77;52.17;;;8.80;99.90;;;;;;5046941;28;20037;-76
2022/10/31 07:09:23;;;;;;;148.52;59.63;;;8.80;99.90;;;;;;5056922;28;20323;-75
2022/10/31 07:11:52;;;;;;;147.90;59.15;;;8.80;99.90;;;;;;5067875;28;20147;-76
2022/10/31 07:14:19;;;;;;;157.27;61.30;;;9.00;99.90;;;;;;5046327;28;20091;-75
2022/10/31 07:16:50;;;;;;;154.43;62.00;;;9.10;99.90;;;;;;5051718;28;20053;-75
2022/10/31 07:19:22;;;;;;;148.68;59.70;;;9.20;99.90;;;;;;5048066;28;20052;-75
2022/10/31 07:21:49;;;;;;;161.18;62.60;;;9.20;99.90;;;;;;5000407;22;20046;-73
2022/10/31 07:24:16;;;;;;;157.30;63.83;;;9.40;99.90;;;;;;4954597;28;20614;-74
2022/10/31 07:26:43;;;;;;;163.35;64.60;;;9.40;99.90;;;;;;4956904;28;20043;-74
2022/10/31 07:29:10;;;;;;;165.80;64.90;;;9.40;99.90;;;;;;4948509;28;20090;-73
2022/10/31 07:31:37;;;;;;;182.13;66.28;;;9.50;99.90;;;;;;4958578;28;20217;-73
2022/10/31 07:34:11;;;;;;;169.23;63.47;;;9.50;99.90;;;;;;4958175;28;20130;-73
2022/10/31 07:37:10;;;;;;;154.15;57.90;;;9.60;99.90;;;;;;4933080;28;20038;-74
2022/10/31 07:39:37;;;;;;;156.20;63.95;;;9.60;99.90;;;;;;4956070;28;20133;-74
2022/10/31 07:42:06;;;;;;;158.55;63.60;;;9.70;99.90;;;;;;4954807;28;20359;-74
2022/10/31 07:44:33;;;;;;;169.75;65.53;;;9.80;99.90;;;;;;4946987;28;20511;-74
2022/10/31 07:47:29;;;;;;;171.57;68.05;;;9.90;99.90;;;;;;4949852;28;20432;-74
2022/10/31 07:50:01;;;;;;;147.93;60.33;;;10.00;99.90;;;;;;4951157;28;20054;-74
2022/10/31 07:52:47;;;;;;;156.98;64.15;;;10.20;99.90;;;;;;4957245;28;20136;-74
2022/10/31 07:55:33;;;;;;;162.07;65.63;;;10.40;99.90;;;;;;4956399;28;21581;-73
2022/10/31 07:58:02;;;;;;;162.02;68.07;;;10.40;99.90;;;;;;4959557;28;20038;-74
2022/10/31 08:00:30;;;;;;;136.00;58.40;;;10.50;99.90;;;;;;4959559;28;20398;-74
2022/10/31 08:03:03;;;;;;;102.93;47.65;;;10.70;99.90;;;;;;4969255;28;20572;-74
2022/10/31 08:05:48;;;;;;;99.45;48.90;;;10.80;99.90;;;;;;4959977;28;20156;-74
2022/10/31 08:08:44;;;;;;;99.35;50.90;;;10.90;99.90;;;;;;4947941;28;20121;-74
2022/10/31 08:11:11;;;;;;;83.63;46.15;;;11.10;99.90;;;;;;4959261;28;20046;-74
2022/10/31 08:13:38;;;;;;;64.95;42.08;;;11.30;99.90;;;;;;4953932;28;20046;-75
2022/10/31 08:16:07;;;;;;;76.25;44.00;;;11.30;99.90;;;;;;4947339;28;20480;-74
2022/10/31 08:18:37;;;;;;;79.88;47.20;;;11.40;99.90;;;;;;4957276;28;20489;-74
2022/10/31 08:21:11;;;;;;;83.75;48.95;;;11.60;99.90;;;;;;4957638;28;20040;-74
2022/10/31 08:23:38;;;;;;;75.07;45.35;;;11.80;99.90;;;;;;4945175;28;20043;-74
2022/10/31 08:26:06;;;;;;;62.70;40.67;;;11.90;99.90;;;;;;4947890;28;20083;-74
2022/10/31 08:28:33;;;;;;;67.65;43.05;;;12.00;99.90;;;;;;4952831;28;20146;-74
2022/10/31 08:31:00;;;;;;;60.58;41.35;;;12.20;99.90;;;;;;4949487;28;20050;-74
2022/10/31 08:33:47;;;;;;;72.15;46.00;;;12.30;99.90;;;;;;4933870;28;20057;-74
2022/10/31 08:36:52;;;;;;;66.85;43.45;;;12.50;99.90;;;;;;4953386;28;20133;-74
2022/10/31 08:39:27;;;;;;;64.28;43.40;;;12.70;99.90;;;;;;4950518;28;20046;-74
2022/10/31 08:41:54;;;;;;;76.07;47.72;;;13.00;99.90;;;;;;4939422;28;20464;-74
2022/10/31 08:44:21;;;;;;;71.43;46.65;;;13.30;99.90;;;;;;4946900;28;20047;-73
2022/10/31 08:46:48;;;;;;;67.88;45.60;;;13.50;99.90;;;;;;4953023;28;20058;-74
2022/10/31 08:49:15;;;;;;;76.10;46.67;;;13.90;99.90;;;;;;4957526;28;20137;-74
2022/10/31 08:51:42;;;;;;;69.07;45.20;;;14.10;99.90;;;;;;4949708;28;20110;-74
2022/10/31 08:54:09;;;;;;;61.80;41.58;;;14.30;99.90;;;;;;4951786;28;20143;-74
2022/10/31 08:56:56;;;;;;;61.35;43.75;;;14.50;99.90;;;;;;4954928;28;20039;-74
2022/10/31 08:59:40;;;;;;;60.45;43.88;;;14.80;99.90;;;;;;4967018;28;20046;-74
2022/10/31 09:02:20;;;;;;;66.03;43.58;;;15.00;99.90;;;;;;4950745;28;20054;-74
2022/10/31 09:04:49;;;;;;;60.00;42.97;;;15.00;99.90;;;;;;4979758;28;20050;-74
2022/10/31 09:07:16;;;;;;;56.95;42.70;;;15.20;99.90;;;;;;4962107;28;20039;-74
2022/10/31 09:09:47;;;;;;;61.80;44.67;;;15.60;99.90;;;;;;4961620;28;20379;-74
2022/10/31 09:12:14;;;;;;;58.92;44.70;;;15.90;99.90;;;;;;4945351;28;20050;-74
2022/10/31 09:15:00;;;;;;;58.78;43.03;;;16.10;99.90;;;;;;4963398;28;20067;-74
2022/10/31 09:17:33;;;;;;;56.95;42.70;;;16.20;99.90;;;;;;4945719;28;20376;-74
2022/10/31 09:20:19;;;;;;;61.08;46.15;;;16.20;99.90;;;;;;4943785;28;20608;-74
2022/10/31 09:22:45;;;;;;;53.72;45.00;;;16.40;99.90;;;;;;4952862;28;20043;-74
2022/10/31 09:25:12;;;;;;;60.80;45.38;;;16.40;99.90;;;;;;4936798;28;20043;-74
2022/10/31 09:27:43;;;;;;;57.65;44.25;;;16.50;99.90;;;;;;4931374;28;20395;-74
2022/10/31 09:30:11;;;;;;;60.05;45.88;;;16.60;99.90;;;;;;4951155;28;20094;-74
2022/10/31 09:32:38;;;;;;;56.72;42.65;;;16.60;99.90;;;;;;4951101;28;20102;-74
2022/10/31 09:35:05;;;;;;;47.05;41.45;;;16.70;99.90;;;;;;4952941;28;20047;-74
2022/10/31 09:37:32;;;;;;;48.25;41.53;;;16.70;99.90;;;;;;4956223;28;20039;-74
2022/10/31 09:39:59;;;;;;;50.25;41.33;;;16.70;99.90;;;;;;4950106;28;20047;-74
2022/10/31 09:42:57;;;;;;;48.17;41.95;;;16.50;99.90;;;;;;4946722;28;20043;-74
2022/10/31 09:45:57;;;;;;;45.75;39.70;;;16.70;99.90;;;;;;4953881;28;20051;-74
2022/10/31 09:48:43;;;;;;;45.72;40.30;;;16.70;99.90;;;;;;4967609;28;20058;-74
2022/10/31 09:51:33;;;;;;;44.97;39.45;;;16.60;99.90;;;;;;4941179;28;20047;-74
2022/10/31 09:54:40;;;;;;;51.72;39.80;;;16.50;99.90;;;;;;4940295;28;20246;-74
2022/10/31 09:57:13;;;;;;;45.05;39.28;;;16.60;99.90;;;;;;4946716;28;20051;-73
2022/10/31 09:59:44;;;;;;;41.78;37.03;;;16.60;99.90;;;;;;4951914;28;20127;-73
2022/10/31 10:02:39;;;;;;;42.92;37.97;;;16.60;99.90;;;;;;4953258;28;20579;-74
2022/10/31 10:05:13;;;;;;;41.60;37.13;;;16.60;99.90;;;;;;4945245;28;20117;-73
2022/10/31 10:08:12;;;;;;;41.97;37.42;;;16.80;99.90;;;;;;4963700;28;20038;-73
2022/10/31 10:11:27;;;;;;;43.08;37.95;;;17.10;99.90;;;;;;4946786;28;20694;-73
2022/10/31 10:14:12;;;;;;;41.63;35.63;;;17.00;99.90;;;;;;4946963;28;20048;-73
2022/10/31 10:16:59;;;;;;;41.65;37.55;;;17.00;99.90;;;;;;4945090;28;20035;-74
2022/10/31 10:19:41;;;;;;;40.88;36.38;;;17.10;99.90;;;;;;4940289;28;20051;-73
2022/10/31 10:22:25;;;;;;;38.03;34.28;;;17.20;99.90;;;;;;4946631;28;20051;-73
2022/10/31 10:25:10;;;;;;;36.97;33.58;;;17.10;99.90;;;;;;4951709;28;20230;-73
2022/10/31 10:27:49;;;;;;;37.28;33.60;;;17.10;99.90;;;;;;4953333;28;20531;-73
2022/10/31 10:30:29;;;;;;;39.05;35.13;;;17.00;99.90;;;;;;4947888;28;20506;-74
2022/10/31 10:32:59;;;;;;;35.72;32.17;;;17.00;99.90;;;;;;4960867;28;20406;-74
2022/10/31 10:35:34;;;;;;;36.95;33.45;;;16.90;99.90;;;;;;4952285;28;20060;-73
2022/10/31 10:38:30;;;;;;;39.20;35.72;;;17.00;99.90;;;;;;4964439;28;20107;-74
2022/10/31 10:40:59;;;;;;;37.55;32.55;;;17.00;99.90;;;;;;4939339;28;20389;-74
2022/10/31 10:43:38;;;;;;;37.03;33.83;;;17.00;99.90;;;;;;4949186;28;20055;-73
2022/10/31 10:49:13;;;;;;;35.58;32.00;;;16.90;99.90;;;;;;4964732;28;21441;-74
2022/10/31 10:51:46;;;;;;;37.22;33.78;;;16.80;99.90;;;;;;4948190;28;20069;-73
2022/10/31 10:54:42;;;;;;;33.60;30.73;;;16.60;99.90;;;;;;4960700;28;20097;-74
2022/10/31 10:57:18;;;;;;;35.58;32.38;;;16.70;99.90;;;;;;4964417;28;20038;-74
2022/10/31 10:59:46;;;;;;;33.88;30.98;;;16.90;99.90;;;;;;4962574;28;20039;-73
2022/10/31 11:02:22;;;;;;;33.13;29.75;;;17.20;99.90;;;;;;4947807;28;20036;-74
2022/10/31 11:04:55;;;;;;;35.40;32.17;;;17.20;99.90;;;;;;4953289;28;20073;-74
2022/10/31 11:07:22;;;;;;;34.28;31.15;;;17.20;99.90;;;;;;4947054;28;20043;-74
2022/10/31 11:09:49;;;;;;;32.50;29.55;;;17.10;99.90;;;;;;4944184;28;20042;-74
2022/10/31 11:12:24;;;;;;;32.75;29.80;;;17.00;99.90;;;;;;4942748;28;20043;-74
2022/10/31 11:14:50;;;;;;;;;;;16.90;99.90;;;;;;4945950;28;20643;-73
2022/10/31 11:17:36;;;;;;;31.58;28.85;;;16.80;99.90;;;;;;4959365;28;19922;-74
2022/10/31 11:20:32;;;;;;;30.15;27.55;;;16.80;99.90;;;;;;4965706;28;20046;-73
2022/10/31 11:23:23;;;;;;;30.02;27.52;;;17.00;99.90;;;;;;4949644;28;20047;-72
2022/10/31 11:26:02;;;;;;;30.45;27.73;;;17.10;99.90;;;;;;4946112;28;20289;-72
2022/10/31 11:28:32;;;;;;;30.30;27.83;;;17.30;99.90;;;;;;4929750;28;20628;-72
2022/10/31 11:31:00;;;;;;;30.90;28.08;;;17.40;99.90;;;;;;4952772;28;20620;-72
2022/10/31 11:33:40;;;;;;;31.48;28.83;;;17.60;99.90;;;;;;4952111;28;20050;-72
2022/10/31 11:36:25;;;;;;;30.55;28.13;;;17.70;99.90;;;;;;4945300;28;20134;-72
2022/10/31 11:38:53;;;;;;;32.63;29.20;;;17.70;99.90;;;;;;4948509;28;20047;-72
2022/10/31 11:41:29;;;;;;;30.42;28.08;;;17.80;99.90;;;;;;4947734;28;20035;-72
2022/10/31 11:44:04;;;;;;;32.42;29.48;;;17.90;99.90;;;;;;4942683;28;20306;-72
2022/10/31 11:46:52;;;;;;;33.08;30.23;;;17.90;99.90;;;;;;4954453;28;20122;-72
2022/10/31 11:49:40;;;;;;;32.42;29.65;;;17.80;99.90;;;;;;4944626;28;20091;-72
2022/10/31 11:52:16;;;;;;;33.05;30.08;;;17.60;99.90;;;;;;4948890;28;20591;-72
2022/10/31 11:54:52;;;;;;;36.33;33.05;;;17.50;99.90;;;;;;4952443;28;20050;-71
2022/10/31 11:57:47;;;;;;;35.22;32.25;;;17.50;99.90;;;;;;4961259;28;20078;-72
2022/10/31 12:00:30;;;;;;;36.13;32.78;;;17.40;99.90;;;;;;4960227;28;20053;-70
2022/10/31 12:03:21;;;;;;;35.28;32.00;;;17.40;99.90;;;;;;4960071;28;20263;-74
2022/10/31 12:06:13;;;;;;;34.60;31.70;;;17.40;99.90;;;;;;4953057;28;20054;-71
2022/10/31 12:08:41;;;;;;;35.40;32.28;;;17.40;99.90;;;;;;4947994;28;20061;-71
2022/10/31 12:11:19;;;;;;;34.85;31.67;;;17.40;99.90;;;;;;4950090;28;20397;-71
2022/10/31 12:14:03;;;;;;;36.22;33.00;;;17.40;99.90;;;;;;4951213;28;20047;-71
2022/10/31 12:16:33;;;;;;;36.65;33.10;;;17.40;99.90;;;;;;4956934;28;20039;-72
2022/10/31 12:19:05;;;;;;;37.95;34.38;;;17.40;99.90;;;;;;4944590;28;20054;-71
2022/10/31 12:21:50;;;;;;;36.28;32.75;;;17.40;99.90;;;;;;4953818;28;20036;-72
2022/10/31 12:24:40;;;;;;;38.03;34.30;;;17.50;99.90;;;;;;4968774;28;20047;-72
2022/10/31 12:27:42;;;;;;;37.70;34.22;;;17.60;99.90;;;;;;4943436;28;20387;-71
2022/10/31 12:30:23;;;;;;;37.70;33.83;;;17.60;99.90;;;;;;4945669;28;20070;-72
2022/10/31 12:32:53;;;;;;;37.70;33.92;;;17.50;99.90;;;;;;4956272;28;20047;-72
2022/10/31 12:36:06;;;;;;;38.28;34.03;;;17.50;99.90;;;;;;4921499;28;20162;-71
2022/10/31 12:39:09;;;;;;;38.65;34.65;;;17.50;99.90;;;;;;4919392;28;20066;-72
2022/10/31 12:41:51;;;;;;;41.13;36.92;;;17.50;99.90;;;;;;4922098;28;20057;-71
2022/10/31 12:44:47;;;;;;;41.42;36.97;;;17.60;99.90;;;;;;4949328;28;20050;-71
2022/10/31 12:47:46;;;;;;;41.78;37.80;;;17.50;99.90;;;;;;4925755;28;20071;-71
2022/10/31 12:50:44;;;;;;;41.42;37.13;;;17.40;99.90;;;;;;4953858;28;20444;-72
2022/10/31 12:53:29;;;;;;;40.25;36.20;;;17.30;99.90;;;;;;4949801;28;20522;-71
2022/10/31 12:56:18;;;;;;;42.50;37.08;;;17.40;99.90;;;;;;4955261;28;20059;-71
2022/10/31 12:59:03;;;;;;;41.55;37.05;;;17.20;99.90;;;;;;4949677;28;20390;-71
2022/10/31 13:01:47;;;;;;;39.47;35.80;;;17.20;99.90;;;;;;4947840;28;20039;-72
2022/10/31 13:04:29;;;;;;;40.60;36.47;;;17.20;99.90;;;;;;4927042;28;20497;-71
2022/10/31 13:07:01;;;;;;;42.75;38.63;;;17.20;99.90;;;;;;4945968;28;20178;-72
2022/10/31 13:09:49;;;;;;;43.78;39.45;;;17.30;99.90;;;;;;4947003;28;20320;-71
2022/10/31 13:12:19;;;;;;;43.47;39.15;;;17.30;99.90;;;;;;4951765;28;20046;-71